createdAt,value
2023-03-29T00:01:57.667Z,97393.81
2023-03-29T00:04:24.011Z,97394.88
2023-03-29T00:06:50.303Z,97400.22
2023-03-29T00:09:16.601Z,97402.88
2023-03-29T00:11:42.895Z,97407.41
2023-03-29T00:14:09.161Z,97412.16
2023-03-29T00:16:35.475Z,97407.41
2023-03-29T00:19:01.785Z,97408.22
2023-03-29T00:21:28.064Z,97404.97
2023-03-29T00:23:54.357Z,97389.34
2023-03-29T00:26:20.613Z,97404.34
2023-03-29T00:28:46.869Z,97393.88
2023-03-29T00:31:13.226Z,97398.66
2023-03-29T00:33:39.515Z,97392.03
2023-03-29T00:36:05.804Z,97388.53
2023-03-29T00:38:32.113Z,97374.16
2023-03-29T00:40:58.405Z,97372.09
2023-03-29T00:43:24.680Z,97383.38
2023-03-29T00:45:50.960Z,97364.06
2023-03-29T00:48:17.248Z,97370.88
2023-03-29T00:50:43.560Z,97369.03
2023-03-29T00:53:09.825Z,97354.63
2023-03-29T00:55:36.098Z,97361.97
2023-03-29T00:58:02.350Z,97357.13
2023-03-29T01:00:28.620Z,97353.41
2023-03-29T01:02:55.008Z,97347.94
2023-03-29T01:05:21.393Z,97361.75
2023-03-29T01:07:47.661Z,97360.94
2023-03-29T01:10:13.947Z,97337.94
2023-03-29T01:12:40.203Z,97349.22
2023-03-29T01:15:06.489Z,97352.69
2023-03-29T01:17:32.816Z,97334.69
2023-03-29T01:19:59.141Z,97329.81
2023-03-29T01:22:25.424Z,97344.00
2023-03-29T01:24:51.677Z,97337.59
2023-03-29T01:27:17.948Z,97334.09
2023-03-29T01:29:44.240Z,97331.44
2023-03-29T01:32:10.587Z,97332.25
2023-03-29T01:34:37.058Z,97334.94
2023-03-29T01:37:03.347Z,97330.75
2023-03-29T01:39:29.627Z,97333.66
2023-03-29T01:41:55.899Z,97329.94
2023-03-29T01:44:22.186Z,97328.06
2023-03-29T01:46:48.452Z,97350.50
2023-03-29T01:49:14.686Z,97366.06
2023-03-29T01:51:40.956Z,97372.22
2023-03-29T01:54:07.253Z,97374.31
2023-03-29T01:56:33.545Z,97366.06
2023-03-29T01:58:59.834Z,97354.09
2023-03-29T02:01:26.221Z,97357.81
2023-03-29T02:03:52.555Z,97350.38
2023-03-29T02:06:18.819Z,97335.97
2023-03-29T02:08:45.108Z,97324.81
2023-03-29T02:11:11.403Z,97333.06
2023-03-29T02:13:37.688Z,97336.09
2023-03-29T02:16:04.006Z,97338.19
2023-03-29T02:18:30.276Z,97334.25
2023-03-29T02:20:56.560Z,97341.44
2023-03-29T02:23:22.814Z,97353.75
2023-03-29T02:25:49.085Z,97343.06
2023-03-29T02:28:15.360Z,97335.88
2023-03-29T02:30:41.630Z,97351.09
2023-03-29T02:33:07.943Z,97364.00
2023-03-29T02:35:34.306Z,97372.81
2023-03-29T02:38:00.663Z,97364.81
2023-03-29T02:40:26.925Z,97356.56
2023-03-29T02:42:53.186Z,97352.03
2023-03-29T02:45:19.475Z,97365.38
2023-03-29T02:47:45.807Z,97352.25
2023-03-29T02:50:12.113Z,97349.59
2023-03-29T02:52:38.395Z,97340.75
2023-03-29T02:55:04.649Z,97366.44
2023-03-29T02:57:30.905Z,97373.63
2023-03-29T02:59:57.307Z,97348.75
2023-03-29T03:02:23.652Z,97354.34
2023-03-29T03:04:49.917Z,97338.66
2023-03-29T03:07:16.206Z,97332.81
2023-03-29T03:09:42.513Z,97332.03
2023-03-29T03:12:08.775Z,97340.84
2023-03-29T03:14:35.042Z,97321.06
2023-03-29T03:17:03.937Z,97314.44
2023-03-29T03:19:30.917Z,97326.41
2023-03-29T03:21:57.212Z,97342.22
2023-03-29T03:24:23.477Z,97336.06
2023-03-29T03:26:49.757Z,97348.84
2023-03-29T03:29:16.003Z,97398.59
2023-03-29T03:31:42.408Z,97378.03
2023-03-29T03:34:08.730Z,97351.06
2023-03-29T03:36:34.978Z,97348.97
2023-03-29T03:39:01.236Z,97340.72
2023-03-29T03:41:27.518Z,97311.19
2023-03-29T03:43:53.801Z,97318.06
2023-03-29T03:46:20.156Z,97304.56
2023-03-29T03:48:46.509Z,97304.91
2023-03-29T03:51:12.782Z,97317.00
2023-03-29T03:53:39.077Z,97333.28
2023-03-29T03:56:05.325Z,97317.13
2023-03-29T03:58:31.604Z,97316.66
2023-03-29T04:00:57.883Z,97310.38
2023-03-29T04:03:24.323Z,97311.78
2023-03-29T04:05:50.666Z,97308.88
2023-03-29T04:08:16.922Z,97308.66
2023-03-29T04:10:43.205Z,97313.06
2023-03-29T04:13:09.459Z,97314.59
2023-03-29T04:15:35.744Z,97316.47
2023-03-29T04:18:02.122Z,97310.72
2023-03-29T04:20:28.429Z,97309.56
2023-03-29T04:22:54.682Z,97314.44
2023-03-29T04:25:21.128Z,97312.00
2023-03-29T04:27:47.409Z,97325.94
2023-03-29T04:30:13.668Z,97310.94
2023-03-29T04:32:39.956Z,97310.94
2023-03-29T04:35:06.261Z,97299.22
2023-03-29T04:37:32.565Z,97304.56
2023-03-29T04:39:58.835Z,97296.53
2023-03-29T04:42:25.120Z,97308.72
2023-03-29T04:44:51.400Z,97313.94
2023-03-29T04:47:17.760Z,97311.84
2023-03-29T04:49:44.116Z,97308.72
2023-03-29T04:52:10.448Z,97309.53
2023-03-29T04:54:36.723Z,97312.44
2023-03-29T04:57:03.029Z,97308.59
2023-03-29T04:59:29.331Z,97309.66
2023-03-29T05:01:55.598Z,97307.44
2023-03-29T05:04:22.047Z,97304.78
2023-03-29T05:06:48.384Z,97305.81
2023-03-29T05:09:14.662Z,97303.63
2023-03-29T05:11:40.955Z,97313.03
2023-03-29T05:14:07.227Z,97307.91
2023-03-29T05:16:33.603Z,97308.38
2023-03-29T05:18:59.938Z,97299.56
2023-03-29T05:21:26.303Z,97298.16
2023-03-29T05:23:52.574Z,97285.03
2023-03-29T05:26:18.866Z,97287.69
2023-03-29T05:28:45.113Z,97297.59
2023-03-29T05:31:11.405Z,97302.34
2023-03-29T05:33:37.704Z,97307.94
2023-03-29T05:36:04.020Z,97313.28
2023-03-29T05:38:30.337Z,97311.66
2023-03-29T05:40:56.640Z,97296.41
2023-03-29T05:43:22.933Z,97302.81
2023-03-29T05:45:49.246Z,97305.72
2023-03-29T05:48:15.581Z,97310.50
2023-03-29T05:50:43.287Z,97320.38
2023-03-29T05:53:10.703Z,97322.69
2023-03-29T05:55:37.088Z,97330.28
2023-03-29T05:58:03.336Z,97334.81
2023-03-29T06:00:29.610Z,97322.03
2023-03-29T06:02:59.281Z,97337.03
2023-03-29T06:05:32.854Z,97331.91
2023-03-29T06:07:59.113Z,97338.88
2023-03-29T06:10:25.362Z,97342.84
2023-03-29T06:12:51.674Z,97323.91
2023-03-29T06:15:17.928Z,97318.41
2023-03-29T06:17:44.256Z,97326.41
2023-03-29T06:20:10.634Z,97323.75
2023-03-29T06:22:36.903Z,97336.56
2023-03-29T06:25:03.172Z,97338.75
2023-03-29T06:27:29.423Z,97339.09
2023-03-29T06:29:55.678Z,97329.78
2023-03-29T06:32:21.944Z,97330.38
2023-03-29T06:34:48.192Z,97345.94
2023-03-29T06:37:14.458Z,97343.63
2023-03-29T06:39:40.781Z,97347.69
2023-03-29T06:42:20.157Z,97348.50
2023-03-29T06:44:47.665Z,97346.16
2023-03-29T06:47:13.917Z,97333.97
2023-03-29T06:49:40.205Z,97348.72
2023-03-29T06:52:06.477Z,97347.44
2023-03-29T06:54:32.747Z,97350.22
2023-03-29T06:56:59.063Z,97345.34
2023-03-29T06:59:25.353Z,97334.53
2023-03-29T07:01:51.659Z,97342.53
2023-03-29T07:04:18.241Z,97345.81
2023-03-29T07:06:44.575Z,97348.00
2023-03-29T07:09:10.851Z,97353.22
2023-03-29T07:11:37.126Z,97346.75
2023-03-29T07:14:03.378Z,97350.34
2023-03-29T07:16:29.665Z,97355.91
2023-03-29T07:18:55.958Z,97362.44
2023-03-29T07:21:22.208Z,97372.19
2023-03-29T07:23:48.464Z,97372.31
2023-03-29T07:26:14.720Z,97373.94
2023-03-29T07:28:55.743Z,97368.00
2023-03-29T07:31:21.985Z,97373.59
2023-03-29T07:33:48.349Z,97377.34
2023-03-29T07:36:14.694Z,97368.59
2023-03-29T07:38:40.961Z,97377.31
2023-03-29T07:41:07.283Z,97386.63
2023-03-29T07:43:33.880Z,97384.88
2023-03-29T07:46:00.227Z,97363.81
2023-03-29T07:48:26.489Z,97368.56
2023-03-29T07:50:52.774Z,97369.63
2023-03-29T07:53:19.084Z,97375.69
2023-03-29T07:55:46.941Z,97374.19
2023-03-29T07:58:13.520Z,97381.63
2023-03-29T08:00:39.808Z,97374.97
2023-03-29T08:03:06.162Z,97382.28
2023-03-29T08:05:40.569Z,97390.41
2023-03-29T08:08:07.861Z,97387.72
2023-03-29T08:10:34.139Z,97385.47
2023-03-29T08:13:00.428Z,97398.84
2023-03-29T08:15:26.696Z,97412.00
2023-03-29T08:17:53.007Z,97412.00
2023-03-29T08:20:19.325Z,97411.78
2023-03-29T08:22:45.580Z,97403.41
2023-03-29T08:25:11.856Z,97396.59
2023-03-29T08:27:38.172Z,97400.34
2023-03-29T08:30:04.432Z,97398.28
2023-03-29T08:32:30.787Z,97398.38
2023-03-29T08:34:57.073Z,97398.38
2023-03-29T08:37:23.322Z,97392.31
2023-03-29T08:39:49.590Z,97393.94
2023-03-29T08:42:15.855Z,97384.94
2023-03-29T08:44:42.108Z,97382.75
2023-03-29T08:47:08.376Z,97391.59
2023-03-29T08:49:34.648Z,97388.19
2023-03-29T08:52:00.915Z,97405.03
2023-03-29T08:54:27.227Z,97401.53
2023-03-29T08:56:53.621Z,97394.97
2023-03-29T08:59:19.898Z,97404.19
2023-03-29T09:01:48.033Z,97394.66
2023-03-29T09:04:14.869Z,97394.75
2023-03-29T09:06:41.171Z,97393.69
2023-03-29T09:09:07.484Z,97389.16
2023-03-29T09:11:33.739Z,97390.59
2023-03-29T09:14:00.003Z,97394.75
2023-03-29T09:16:26.300Z,97382.88
2023-03-29T09:18:52.581Z,97383.69
2023-03-29T09:21:18.844Z,97393.53
2023-03-29T09:23:45.127Z,97390.06
2023-03-29T09:26:11.419Z,97387.38
2023-03-29T09:28:37.680Z,97393.59
2023-03-29T09:31:04.364Z,97388.66
2023-03-29T09:33:30.851Z,97386.22
2023-03-29T09:35:57.164Z,97396.63
2023-03-29T09:38:23.504Z,97393.06
2023-03-29T09:40:49.827Z,97389.81
2023-03-29T09:43:16.081Z,97396.94
2023-03-29T09:45:42.380Z,97383.88
2023-03-29T09:48:08.702Z,97387.94
2023-03-29T09:50:34.990Z,97382.50
2023-03-29T09:53:01.284Z,97393.84
2023-03-29T09:55:27.590Z,97382.81
2023-03-29T09:57:54.255Z,97373.38
2023-03-29T10:00:20.533Z,97383.94
2023-03-29T10:02:46.848Z,97379.72
2023-03-29T10:05:13.133Z,97375.34
2023-03-29T10:07:39.403Z,97385.41
2023-03-29T10:10:05.683Z,97378.56
2023-03-29T10:12:31.984Z,97375.81
2023-03-29T10:14:58.257Z,97380.13
2023-03-29T10:17:24.661Z,97380.31
2023-03-29T10:19:50.960Z,97379.06
2023-03-29T10:22:17.225Z,97384.13
2023-03-29T10:24:43.505Z,97384.84
2023-03-29T10:27:09.756Z,97382.91
2023-03-29T10:29:36.026Z,97372.47
2023-03-29T10:32:02.386Z,97377.38
2023-03-29T10:34:28.699Z,97386.31
2023-03-29T10:36:54.963Z,97388.84
2023-03-29T10:39:21.231Z,97372.91
2023-03-29T10:41:47.487Z,97381.34
2023-03-29T10:44:13.738Z,97374.28
2023-03-29T10:46:40.205Z,97376.06
2023-03-29T10:49:06.621Z,97378.25
2023-03-29T10:51:32.884Z,97379.06
2023-03-29T10:53:59.175Z,97365.25
2023-03-29T10:56:25.448Z,97368.63
2023-03-29T10:58:51.705Z,97361.94
2023-03-29T11:01:18.016Z,97348.09
2023-03-29T11:03:44.404Z,97352.41
2023-03-29T11:06:10.736Z,97356.56
2023-03-29T11:08:36.989Z,97356.94
2023-03-29T11:11:03.430Z,97355.41
2023-03-29T11:13:29.914Z,97357.63
2023-03-29T11:15:56.243Z,97358.56
2023-03-29T11:18:22.551Z,97349.53
2023-03-29T11:20:48.890Z,97345.91
2023-03-29T11:23:15.161Z,97342.56
2023-03-29T11:25:41.397Z,97337.88
2023-03-29T11:28:07.676Z,97348.75
2023-03-29T11:30:33.940Z,97350.94
2023-03-29T11:33:00.431Z,97349.97
2023-03-29T11:35:26.705Z,97351.03
2023-03-29T11:37:52.972Z,97352.72
2023-03-29T11:40:19.251Z,97336.66
2023-03-29T11:42:45.544Z,97339.16
2023-03-29T11:45:11.806Z,97342.34
2023-03-29T11:47:38.063Z,97345.97
2023-03-29T11:50:04.477Z,97355.75
2023-03-29T11:52:30.747Z,97348.72
2023-03-29T11:54:57.132Z,97350.28
2023-03-29T11:57:23.488Z,97335.06
2023-03-29T11:59:49.820Z,97349.28
2023-03-29T12:02:16.099Z,97331.19
2023-03-29T12:04:42.379Z,97312.72
2023-03-29T12:07:08.675Z,97308.09
2023-03-29T12:09:34.982Z,97308.66
2023-03-29T12:12:01.274Z,97305.59
2023-03-29T12:14:28.203Z,97301.31
2023-03-29T12:16:54.606Z,97294.25
2023-03-29T12:19:20.897Z,97282.38
2023-03-29T12:21:47.473Z,97295.81
2023-03-29T12:24:13.846Z,97307.16
2023-03-29T12:26:40.084Z,97300.22
2023-03-29T12:29:06.353Z,97305.34
2023-03-29T12:31:32.674Z,97306.88
2023-03-29T12:33:59.034Z,97307.38
2023-03-29T12:36:25.302Z,97301.00
2023-03-29T12:38:51.565Z,97308.94
2023-03-29T12:41:17.820Z,97300.50
2023-03-29T12:43:44.072Z,97299.91
2023-03-29T12:46:10.389Z,97290.88
2023-03-29T12:48:36.672Z,97297.56
2023-03-29T12:51:02.925Z,97294.34
2023-03-29T12:53:29.193Z,97288.16
2023-03-29T12:55:55.458Z,97279.69
2023-03-29T12:58:21.726Z,97274.84
2023-03-29T13:00:48.030Z,97271.22
2023-03-29T13:03:14.329Z,97273.34
2023-03-29T13:05:40.667Z,97271.69
2023-03-29T13:08:06.955Z,97278.06
2023-03-29T13:10:33.223Z,97289.69
2023-03-29T13:12:59.489Z,97278.06
2023-03-29T13:15:25.733Z,97274.84
2023-03-29T13:17:52.077Z,97273.31
2023-03-29T13:20:18.422Z,97263.13
2023-03-29T13:22:44.677Z,97263.41
2023-03-29T13:25:10.946Z,97275.53
2023-03-29T13:27:37.276Z,97268.97
2023-03-29T13:30:03.545Z,97258.91
2023-03-29T13:32:29.802Z,97251.47
2023-03-29T13:34:56.102Z,97247.19
2023-03-29T13:37:22.362Z,97240.78
2023-03-29T13:39:48.605Z,97230.06
2023-03-29T13:42:14.873Z,97231.97
2023-03-29T13:44:41.142Z,97235.28
2023-03-29T13:47:07.467Z,97225.34
2023-03-29T13:49:33.754Z,97230.50
2023-03-29T13:52:00.010Z,97229.69
2023-03-29T13:54:26.350Z,97224.56
2023-03-29T13:56:52.663Z,97218.88
2023-03-29T13:59:18.953Z,97224.81
2023-03-29T14:01:45.263Z,97211.66
2023-03-29T14:04:11.549Z,97218.69
2023-03-29T14:06:37.841Z,97224.88
2023-03-29T14:09:04.151Z,97212.47
2023-03-29T14:11:30.487Z,97205.47
2023-03-29T14:13:56.780Z,97202.75
2023-03-29T14:16:23.081Z,97199.53
2023-03-29T14:18:49.386Z,97197.91
2023-03-29T14:21:15.678Z,97190.34
2023-03-29T14:23:42.012Z,97185.22
2023-03-29T14:26:08.300Z,97190.09
2023-03-29T14:28:34.562Z,97183.34
2023-03-29T14:31:00.825Z,97188.19
2023-03-29T14:33:27.098Z,97186.03
2023-03-29T14:35:53.471Z,97182.81
2023-03-29T14:38:19.811Z,97181.72
2023-03-29T14:40:46.066Z,97178.47
2023-03-29T14:43:12.581Z,97177.38
2023-03-29T14:45:38.918Z,97175.47
2023-03-29T14:48:05.246Z,97169.81
2023-03-29T14:50:31.590Z,97159.56
2023-03-29T14:52:57.849Z,97164.69
2023-03-29T14:55:24.160Z,97159.28
2023-03-29T14:57:50.421Z,97160.34
2023-03-29T15:00:16.671Z,97149.84
2023-03-29T15:02:43.021Z,97149.53
2023-03-29T15:05:09.352Z,97149.28
2023-03-29T15:07:35.615Z,97146.28
2023-03-29T15:10:02.002Z,97141.25
2023-03-29T15:12:28.328Z,97143.41
2023-03-29T15:14:54.653Z,97140.16
2023-03-29T15:17:20.908Z,97140.44
2023-03-29T15:19:47.198Z,97139.06
2023-03-29T15:22:13.475Z,97142.06
2023-03-29T15:24:39.720Z,97133.69
2023-03-29T15:27:05.996Z,97127.19
2023-03-29T15:29:32.286Z,97123.16
2023-03-29T15:31:58.594Z,97117.47
2023-03-29T15:34:24.891Z,97120.16
2023-03-29T15:36:51.201Z,97118.53
2023-03-29T15:39:17.543Z,97107.19
2023-03-29T15:41:43.820Z,97114.22
2023-03-29T15:44:10.114Z,97109.63
2023-03-29T15:46:36.423Z,97102.34
2023-03-29T15:49:02.725Z,97105.56
2023-03-29T15:51:29.023Z,97099.59
2023-03-29T15:53:55.328Z,97098.00
2023-03-29T15:56:21.609Z,97102.06
2023-03-29T15:58:47.878Z,97092.06
2023-03-29T16:01:14.179Z,97084.50
2023-03-29T16:03:40.516Z,97088.78
2023-03-29T16:06:06.973Z,97085.00
2023-03-29T16:08:33.214Z,97079.09
2023-03-29T16:10:59.493Z,97077.75
2023-03-29T16:13:25.766Z,97075.84
2023-03-29T16:15:52.077Z,97073.72
2023-03-29T16:18:18.362Z,97072.09
2023-03-29T16:20:44.619Z,97068.56
2023-03-29T16:23:10.890Z,97065.59
2023-03-29T16:25:37.208Z,97061.00
2023-03-29T16:28:03.464Z,97070.72
2023-03-29T16:30:29.757Z,97071.53
2023-03-29T16:32:56.114Z,97065.63
2023-03-29T16:35:22.431Z,97064.53
2023-03-29T16:37:48.708Z,97059.69
2023-03-29T16:40:14.994Z,97054.84
2023-03-29T16:42:41.252Z,97055.91
2023-03-29T16:45:07.543Z,97042.47
2023-03-29T16:47:33.869Z,97047.56
2023-03-29T16:50:00.226Z,97050.56
2023-03-29T16:52:26.557Z,97050.31
2023-03-29T16:54:52.810Z,97050.59
2023-03-29T16:57:19.121Z,97050.63
2023-03-29T16:59:45.453Z,97053.34
2023-03-29T17:02:11.926Z,97046.34
2023-03-29T17:04:38.273Z,97042.56
2023-03-29T17:07:04.585Z,97036.09
2023-03-29T17:09:30.884Z,97051.19
2023-03-29T17:11:57.155Z,97056.34
2023-03-29T17:14:23.472Z,97054.47
2023-03-29T17:16:49.774Z,97059.63
2023-03-29T17:19:16.026Z,97056.44
2023-03-29T17:21:42.296Z,97055.09
2023-03-29T17:24:08.570Z,97057.81
2023-03-29T17:26:34.915Z,97055.13
2023-03-29T17:29:01.184Z,97049.72
2023-03-29T17:31:27.484Z,97048.66
2023-03-29T17:33:53.796Z,97047.03
2023-03-29T17:36:20.110Z,97044.34
2023-03-29T17:38:46.423Z,97037.63
2023-03-29T17:41:12.712Z,97044.88
2023-03-29T17:43:38.980Z,97045.44
2023-03-29T17:46:05.429Z,97052.16
2023-03-29T17:48:31.981Z,97047.03
2023-03-29T17:50:58.257Z,97041.38
2023-03-29T17:53:24.534Z,97040.56
2023-03-29T17:55:50.808Z,97043.53
2023-03-29T17:58:17.052Z,97044.06
2023-03-29T18:00:43.336Z,97046.50
2023-03-29T18:03:09.680Z,97041.09
2023-03-29T18:05:35.983Z,97038.38
2023-03-29T18:08:02.260Z,97034.09
2023-03-29T18:10:28.561Z,97034.63
2023-03-29T18:12:54.860Z,97040.00
2023-03-29T18:15:21.133Z,97058.03
2023-03-29T18:17:47.437Z,97061.00
2023-03-29T18:20:13.756Z,97068.53
2023-03-29T18:22:40.030Z,97063.94
2023-03-29T18:25:06.306Z,97056.41
2023-03-29T18:27:32.569Z,97041.59
2023-03-29T18:29:58.871Z,97033.78
2023-03-29T18:32:25.138Z,97028.16
2023-03-29T18:34:51.443Z,97027.06
2023-03-29T18:37:17.723Z,97030.28
2023-03-29T18:39:43.988Z,97038.38
2023-03-29T18:42:12.077Z,97044.84
2023-03-29T18:44:38.933Z,97044.28
2023-03-29T18:47:05.212Z,97053.44
2023-03-29T18:49:31.495Z,97049.69
2023-03-29T18:51:57.787Z,97043.75
2023-03-29T18:54:24.086Z,97045.63
2023-03-29T18:56:50.373Z,97048.88
2023-03-29T18:59:16.669Z,97053.44
2023-03-29T19:01:43.029Z,97051.28
2023-03-29T19:04:09.326Z,97049.13
2023-03-29T19:06:35.584Z,97059.91
2023-03-29T19:09:01.893Z,97057.22
2023-03-29T19:11:29.043Z,97064.47
2023-03-29T19:13:55.453Z,97054.50
2023-03-29T19:16:21.775Z,97063.66
2023-03-29T19:18:48.094Z,97073.88
2023-03-29T19:21:14.387Z,97067.44
2023-03-29T19:23:40.658Z,97066.06
2023-03-29T19:26:07.097Z,97066.34
2023-03-29T19:28:33.482Z,97070.66
2023-03-29T19:30:59.811Z,97070.91
2023-03-29T19:33:26.182Z,97067.41
2023-03-29T19:35:52.512Z,97069.56
2023-03-29T19:38:18.848Z,97065.53
2023-03-29T19:40:45.117Z,97074.13
2023-03-29T19:43:11.387Z,97074.41
2023-03-29T19:45:37.640Z,97076.03
2023-03-29T19:48:04.030Z,97068.50
2023-03-29T19:50:30.307Z,97063.66
2023-03-29T19:52:56.555Z,97059.06
2023-03-29T19:55:22.833Z,97056.38
2023-03-29T19:57:49.124Z,97067.16
2023-03-29T20:00:15.380Z,97060.69
2023-03-29T20:02:41.709Z,97065.81
2023-03-29T20:05:08.041Z,97070.66
2023-03-29T20:07:34.315Z,97065.00
2023-03-29T20:10:00.594Z,97055.03
2023-03-29T20:12:26.853Z,97047.22
2023-03-29T20:14:53.113Z,97043.19
2023-03-29T20:17:19.397Z,97050.97
2023-03-29T20:19:47.851Z,97062.81
2023-03-29T20:22:14.185Z,97062.00
2023-03-29T20:24:40.545Z,97057.69
2023-03-29T20:27:06.893Z,97055.81
2023-03-29T20:29:33.180Z,97055.25
2023-03-29T20:31:59.458Z,97048.53
2023-03-29T20:34:25.824Z,97046.38
2023-03-29T20:36:52.165Z,97043.94
2023-03-29T20:39:18.439Z,97043.41
2023-03-29T20:41:44.700Z,97038.81
2023-03-29T20:44:11.014Z,97042.56
2023-03-29T20:46:37.343Z,97045.25
2023-03-29T20:49:03.621Z,97046.84
2023-03-29T20:51:29.879Z,97047.38
2023-03-29T20:53:56.237Z,97047.63
2023-03-29T20:56:22.522Z,97050.31
2023-03-29T20:58:48.887Z,97056.50
2023-03-29T21:01:15.280Z,97050.56
2023-03-29T21:03:41.677Z,97057.56
2023-03-29T21:06:08.111Z,97050.31
2023-03-29T21:08:35.465Z,97048.44
2023-03-29T21:11:01.923Z,97047.63
2023-03-29T21:13:28.305Z,97056.00
2023-03-29T21:15:54.643Z,97056.78
2023-03-29T21:18:20.974Z,97059.22
2023-03-29T21:20:47.222Z,97042.81
2023-03-29T21:23:13.506Z,97048.47
2023-03-29T21:25:39.821Z,97044.72
2023-03-29T21:28:06.172Z,97037.72
2023-03-29T21:30:32.436Z,97038.81
2023-03-29T21:32:58.786Z,97037.44
2023-03-29T21:35:25.109Z,97038.25
2023-03-29T21:37:51.392Z,97037.16
2023-03-29T21:40:17.675Z,97039.81
2023-03-29T21:42:43.982Z,97035.78
2023-03-29T21:45:10.271Z,97026.66
2023-03-29T21:47:36.577Z,97034.72
2023-03-29T21:50:02.907Z,97030.97
2023-03-29T21:52:29.253Z,97022.88
2023-03-29T21:54:55.566Z,97030.13
2023-03-29T21:57:21.960Z,97018.03
2023-03-29T21:59:48.267Z,97018.84
2023-03-29T22:02:14.604Z,97014.28
2023-03-29T22:04:40.885Z,97010.25
2023-03-29T22:07:07.152Z,97008.38
2023-03-29T22:09:33.455Z,97014.25
2023-03-29T22:11:59.861Z,97016.16
2023-03-29T22:14:26.222Z,97012.66
2023-03-29T22:16:52.698Z,97005.63
2023-03-29T22:19:19.023Z,97001.88
2023-03-29T22:21:45.297Z,97004.56
2023-03-29T22:24:11.549Z,96995.41
2023-03-29T22:26:37.823Z,96987.59
2023-03-29T22:29:04.106Z,96989.50
2023-03-29T22:31:30.473Z,96983.84
2023-03-29T22:33:56.775Z,96978.47
2023-03-29T22:36:23.054Z,96981.69
2023-03-29T22:38:49.355Z,96975.78
2023-03-29T22:41:15.624Z,96970.94
2023-03-29T22:43:41.889Z,96975.81
2023-03-29T22:46:08.167Z,96973.66
2023-03-29T22:48:34.489Z,96970.97
2023-03-29T22:51:00.837Z,96976.09
2023-03-29T22:53:27.099Z,96971.50
2023-03-29T22:55:53.368Z,96984.41
2023-03-29T22:58:19.646Z,96973.66
2023-03-29T23:00:45.918Z,96969.34
2023-03-29T23:03:12.202Z,96965.59
2023-03-29T23:05:38.473Z,96966.13
2023-03-29T23:08:04.791Z,96954.84
2023-03-29T23:10:31.037Z,96960.22
2023-03-29T23:12:57.310Z,96954.03
2023-03-29T23:15:23.568Z,96952.97
2023-03-29T23:17:49.884Z,96943.81
2023-03-29T23:20:16.222Z,96937.09
2023-03-29T23:22:42.725Z,96925.28
2023-03-29T23:25:09.067Z,96921.50
2023-03-29T23:27:35.309Z,96918.56
2023-03-29T23:30:01.585Z,96914.50
2023-03-29T23:32:27.871Z,96909.13
2023-03-29T23:34:54.158Z,96897.84
2023-03-29T23:37:20.423Z,96899.44
2023-03-29T23:39:46.677Z,96911.00
2023-03-29T23:42:12.914Z,96905.09
2023-03-29T23:44:39.184Z,96897.84
2023-03-29T23:47:05.458Z,96900.00
2023-03-29T23:49:31.749Z,96894.63
2023-03-29T23:51:58.008Z,96887.38
2023-03-29T23:54:24.281Z,96898.94
2023-03-29T23:56:50.582Z,96887.38
2023-03-29T23:59:16.832Z,96894.91
